sensor_id;sensor_type;location;lat;lon;timestamp;P1;durP1;ratioP1;P2;durP2;ratioP2
45909;SDS011;31622;55.416;37.840;2022-08-19T00:00:27;9.07;;;5.47;;
45909;SDS011;31622;55.416;37.840;2022-08-19T00:02:53;11.00;;;5.82;;
45909;SDS011;31622;55.416;37.840;2022-08-19T00:05:19;7.13;;;4.70;;
45909;SDS011;31622;55.416;37.840;2022-08-19T00:07:45;6.97;;;4.60;;
45909;SDS011;31622;55.416;37.840;2022-08-19T00:10:12;7.93;;;4.72;;
45909;SDS011;31622;55.416;37.840;2022-08-19T00:12:39;8.13;;;4.45;;
45909;SDS011;31622;55.416;37.840;2022-08-19T00:15:06;7.65;;;4.00;;
45909;SDS011;31622;55.416;37.840;2022-08-19T00:17:37;8.68;;;4.20;;
45909;SDS011;31622;55.416;37.840;2022-08-19T00:20:03;4.93;;;3.83;;
45909;SDS011;31622;55.416;37.840;2022-08-19T00:22:30;5.55;;;3.75;;
45909;SDS011;31622;55.416;37.840;2022-08-19T00:24:56;10.30;;;3.80;;
45909;SDS011;31622;55.416;37.840;2022-08-19T00:27:22;5.78;;;3.58;;
45909;SDS011;31622;55.416;37.840;2022-08-19T00:29:47;5.60;;;3.63;;
45909;SDS011;31622;55.416;37.840;2022-08-19T00:32:13;6.43;;;3.10;;
45909;SDS011;31622;55.416;37.840;2022-08-19T00:34:38;5.05;;;3.13;;
45909;SDS011;31622;55.416;37.840;2022-08-19T00:37:04;5.72;;;3.10;;
45909;SDS011;31622;55.416;37.840;2022-08-19T00:39:30;5.07;;;3.00;;
45909;SDS011;31622;55.416;37.840;2022-08-19T00:41:55;5.40;;;3.03;;
45909;SDS011;31622;55.416;37.840;2022-08-19T00:44:23;4.82;;;3.38;;
45909;SDS011;31622;55.416;37.840;2022-08-19T00:46:53;7.95;;;2.72;;
45909;SDS011;31622;55.416;37.840;2022-08-19T00:49:23;5.93;;;3.58;;
45909;SDS011;31622;55.416;37.840;2022-08-19T00:51:55;7.70;;;2.45;;
45909;SDS011;31622;55.416;37.840;2022-08-19T00:54:28;4.72;;;2.72;;
45909;SDS011;31622;55.416;37.840;2022-08-19T00:56:56;4.55;;;2.88;;
45909;SDS011;31622;55.416;37.840;2022-08-19T00:59:23;6.10;;;3.00;;
45909;SDS011;31622;55.416;37.840;2022-08-19T01:01:48;4.25;;;2.55;;
45909;SDS011;31622;55.416;37.840;2022-08-19T01:04:14;4.88;;;2.80;;
45909;SDS011;31622;55.416;37.840;2022-08-19T01:06:40;3.58;;;2.67;;
45909;SDS011;31622;55.416;37.840;2022-08-19T01:09:06;4.18;;;2.83;;
45909;SDS011;31622;55.416;37.840;2022-08-19T01:11:34;3.80;;;2.50;;
45909;SDS011;31622;55.416;37.840;2022-08-19T01:14:02;3.67;;;2.55;;
45909;SDS011;31622;55.416;37.840;2022-08-19T01:16:29;4.60;;;2.50;;
45909;SDS011;31622;55.416;37.840;2022-08-19T01:18:55;4.82;;;2.90;;
45909;SDS011;31622;55.416;37.840;2022-08-19T01:24:31;5.35;;;2.80;;
45909;SDS011;31622;55.416;37.840;2022-08-19T01:26:57;4.32;;;2.60;;
45909;SDS011;31622;55.416;37.840;2022-08-19T01:29:23;3.22;;;2.60;;
45909;SDS011;31622;55.416;37.840;2022-08-19T01:31:49;3.75;;;2.53;;
45909;SDS011;31622;55.416;37.840;2022-08-19T01:34:17;6.95;;;2.60;;
45909;SDS011;31622;55.416;37.840;2022-08-19T01:36:43;4.50;;;2.60;;
45909;SDS011;31622;55.416;37.840;2022-08-19T01:39:19;9.18;;;2.88;;
45909;SDS011;31622;55.416;37.840;2022-08-19T01:41:48;4.10;;;2.58;;
45909;SDS011;31622;55.416;37.840;2022-08-19T01:44:14;5.30;;;2.50;;
45909;SDS011;31622;55.416;37.840;2022-08-19T01:46:40;5.05;;;2.55;;
45909;SDS011;31622;55.416;37.840;2022-08-19T01:49:07;3.78;;;2.63;;
45909;SDS011;31622;55.416;37.840;2022-08-19T01:51:33;4.97;;;2.78;;
45909;SDS011;31622;55.416;37.840;2022-08-19T01:53:59;4.30;;;2.53;;
45909;SDS011;31622;55.416;37.840;2022-08-19T01:56:25;14.88;;;2.97;;
45909;SDS011;31622;55.416;37.840;2022-08-19T01:58:55;12.70;;;2.83;;
45909;SDS011;31622;55.416;37.840;2022-08-19T02:01:24;11.90;;;3.00;;
45909;SDS011;31622;55.416;37.840;2022-08-19T02:03:50;6.78;;;2.70;;
45909;SDS011;31622;55.416;37.840;2022-08-19T02:06:18;4.15;;;2.50;;
45909;SDS011;31622;55.416;37.840;2022-08-19T02:08:44;6.47;;;2.70;;
45909;SDS011;31622;55.416;37.840;2022-08-19T02:11:17;5.90;;;2.42;;
45909;SDS011;31622;55.416;37.840;2022-08-19T02:13:47;3.00;;;2.03;;
45909;SDS011;31622;55.416;37.840;2022-08-19T02:16:14;7.60;;;2.40;;
45909;SDS011;31622;55.416;37.840;2022-08-19T02:18:41;3.67;;;2.30;;
45909;SDS011;31622;55.416;37.840;2022-08-19T02:21:07;4.47;;;2.33;;
45909;SDS011;31622;55.416;37.840;2022-08-19T02:23:32;5.20;;;2.58;;
45909;SDS011;31622;55.416;37.840;2022-08-19T02:25:58;4.22;;;2.60;;
45909;SDS011;31622;55.416;37.840;2022-08-19T02:28:24;4.85;;;2.55;;
45909;SDS011;31622;55.416;37.840;2022-08-19T02:30:49;17.42;;;5.30;;
45909;SDS011;31622;55.416;37.840;2022-08-19T02:33:15;9.43;;;4.80;;
45909;SDS011;31622;55.416;37.840;2022-08-19T02:35:44;7.35;;;3.80;;
45909;SDS011;31622;55.416;37.840;2022-08-19T02:38:11;6.40;;;3.40;;
45909;SDS011;31622;55.416;37.840;2022-08-19T02:41:02;4.07;;;2.70;;
45909;SDS011;31622;55.416;37.840;2022-08-19T02:43:29;7.13;;;3.22;;
45909;SDS011;31622;55.416;37.840;2022-08-19T02:45:56;7.90;;;2.65;;
45909;SDS011;31622;55.416;37.840;2022-08-19T02:48:22;4.50;;;2.70;;
45909;SDS011;31622;55.416;37.840;2022-08-19T02:50:50;5.25;;;2.60;;
45909;SDS011;31622;55.416;37.840;2022-08-19T02:53:23;2.97;;;2.10;;
45909;SDS011;31622;55.416;37.840;2022-08-19T02:55:51;5.43;;;2.95;;
45909;SDS011;31622;55.416;37.840;2022-08-19T02:58:17;4.35;;;2.35;;
45909;SDS011;31622;55.416;37.840;2022-08-19T03:00:44;5.80;;;2.80;;
45909;SDS011;31622;55.416;37.840;2022-08-19T03:03:11;4.53;;;2.45;;
45909;SDS011;31622;55.416;37.840;2022-08-19T03:05:37;5.97;;;2.00;;
45909;SDS011;31622;55.416;37.840;2022-08-19T03:08:04;4.72;;;2.50;;
45909;SDS011;31622;55.416;37.840;2022-08-19T03:10:31;4.57;;;2.38;;
45909;SDS011;31622;55.416;37.840;2022-08-19T03:12:57;5.15;;;2.45;;
45909;SDS011;31622;55.416;37.840;2022-08-19T03:15:23;5.22;;;2.17;;
45909;SDS011;31622;55.416;37.840;2022-08-19T03:17:48;6.95;;;2.55;;
45909;SDS011;31622;55.416;37.840;2022-08-19T03:20:14;7.13;;;2.65;;
45909;SDS011;31622;55.416;37.840;2022-08-19T03:22:40;7.07;;;2.28;;
45909;SDS011;31622;55.416;37.840;2022-08-19T03:25:05;5.25;;;2.20;;
45909;SDS011;31622;55.416;37.840;2022-08-19T03:27:31;6.90;;;2.47;;
45909;SDS011;31622;55.416;37.840;2022-08-19T03:29:57;4.20;;;2.30;;
45909;SDS011;31622;55.416;37.840;2022-08-19T03:32:22;3.55;;;2.38;;
45909;SDS011;31622;55.416;37.840;2022-08-19T03:34:48;3.67;;;2.20;;
45909;SDS011;31622;55.416;37.840;2022-08-19T03:37:14;4.13;;;2.25;;
45909;SDS011;31622;55.416;37.840;2022-08-19T03:39:40;9.93;;;2.60;;
45909;SDS011;31622;55.416;37.840;2022-08-19T03:42:07;5.72;;;2.25;;
45909;SDS011;31622;55.416;37.840;2022-08-19T03:44:33;6.03;;;2.05;;
45909;SDS011;31622;55.416;37.840;2022-08-19T03:47:02;4.68;;;2.08;;
45909;SDS011;31622;55.416;37.840;2022-08-19T03:49:29;4.38;;;2.30;;
45909;SDS011;31622;55.416;37.840;2022-08-19T03:51:57;6.25;;;2.10;;
45909;SDS011;31622;55.416;37.840;2022-08-19T03:54:25;6.88;;;2.28;;
45909;SDS011;31622;55.416;37.840;2022-08-19T03:56:52;5.95;;;2.25;;
45909;SDS011;31622;55.416;37.840;2022-08-19T03:59:21;5.28;;;2.47;;
45909;SDS011;31622;55.416;37.840;2022-08-19T04:02:00;8.68;;;2.22;;
45909;SDS011;31622;55.416;37.840;2022-08-19T04:04:26;6.90;;;2.35;;
45909;SDS011;31622;55.416;37.840;2022-08-19T04:06:52;5.18;;;2.38;;
45909;SDS011;31622;55.416;37.840;2022-08-19T04:09:18;4.45;;;2.38;;
45909;SDS011;31622;55.416;37.840;2022-08-19T04:11:46;4.82;;;2.00;;
45909;SDS011;31622;55.416;37.840;2022-08-19T04:14:15;4.88;;;2.00;;
45909;SDS011;31622;55.416;37.840;2022-08-19T04:16:42;5.28;;;1.90;;
45909;SDS011;31622;55.416;37.840;2022-08-19T04:19:09;21.90;;;4.35;;
45909;SDS011;31622;55.416;37.840;2022-08-19T04:21:35;5.97;;;2.40;;
45909;SDS011;31622;55.416;37.840;2022-08-19T04:24:01;69.07;;;18.35;;
45909;SDS011;31622;55.416;37.840;2022-08-19T04:26:30;51.22;;;11.43;;
45909;SDS011;31622;55.416;37.840;2022-08-19T04:28:57;42.92;;;10.40;;
45909;SDS011;31622;55.416;37.840;2022-08-19T04:31:28;33.07;;;8.93;;
45909;SDS011;31622;55.416;37.840;2022-08-19T04:33:56;33.33;;;9.05;;
45909;SDS011;31622;55.416;37.840;2022-08-19T04:36:24;30.17;;;9.05;;
45909;SDS011;31622;55.416;37.840;2022-08-19T04:38:56;29.63;;;8.25;;
45909;SDS011;31622;55.416;37.840;2022-08-19T04:41:23;27.05;;;7.32;;
45909;SDS011;31622;55.416;37.840;2022-08-19T04:44:08;19.25;;;6.45;;
45909;SDS011;31622;55.416;37.840;2022-08-19T04:46:34;17.83;;;4.85;;
45909;SDS011;31622;55.416;37.840;2022-08-19T04:49:00;15.23;;;5.43;;
45909;SDS011;31622;55.416;37.840;2022-08-19T04:51:27;16.00;;;4.93;;
45909;SDS011;31622;55.416;37.840;2022-08-19T04:53:56;10.90;;;4.30;;
45909;SDS011;31622;55.416;37.840;2022-08-19T04:56:21;11.00;;;3.38;;
45909;SDS011;31622;55.416;37.840;2022-08-19T04:58:48;9.07;;;3.65;;
45909;SDS011;31622;55.416;37.840;2022-08-19T05:01:20;9.30;;;3.63;;
45909;SDS011;31622;55.416;37.840;2022-08-19T05:03:49;14.07;;;2.95;;
45909;SDS011;31622;55.416;37.840;2022-08-19T05:06:16;5.90;;;2.95;;
45909;SDS011;31622;55.416;37.840;2022-08-19T05:08:44;10.07;;;3.47;;
45909;SDS011;31622;55.416;37.840;2022-08-19T05:11:11;7.20;;;2.90;;
45909;SDS011;31622;55.416;37.840;2022-08-19T05:13:40;9.52;;;2.80;;
45909;SDS011;31622;55.416;37.840;2022-08-19T05:16:06;6.80;;;2.95;;
45909;SDS011;31622;55.416;37.840;2022-08-19T05:18:31;5.60;;;2.60;;
45909;SDS011;31622;55.416;37.840;2022-08-19T05:21:36;5.30;;;2.90;;
45909;SDS011;31622;55.416;37.840;2022-08-19T05:24:21;3.80;;;2.22;;
45909;SDS011;31622;55.416;37.840;2022-08-19T05:26:48;7.70;;;2.40;;
45909;SDS011;31622;55.416;37.840;2022-08-19T05:29:20;6.22;;;2.42;;
45909;SDS011;31622;55.416;37.840;2022-08-19T05:31:47;7.45;;;2.33;;
45909;SDS011;31622;55.416;37.840;2022-08-19T05:34:17;7.85;;;2.60;;
45909;SDS011;31622;55.416;37.840;2022-08-19T05:36:44;3.25;;;2.20;;
45909;SDS011;31622;55.416;37.840;2022-08-19T05:39:14;7.35;;;2.30;;
45909;SDS011;31622;55.416;37.840;2022-08-19T05:41:48;3.03;;;2.15;;
45909;SDS011;31622;55.416;37.840;2022-08-19T05:44:15;4.93;;;2.38;;
45909;SDS011;31622;55.416;37.840;2022-08-19T05:46:45;8.93;;;2.75;;
45909;SDS011;31622;55.416;37.840;2022-08-19T05:49:14;4.47;;;2.33;;
45909;SDS011;31622;55.416;37.840;2022-08-19T05:51:41;6.97;;;2.50;;
45909;SDS011;31622;55.416;37.840;2022-08-19T05:54:08;6.82;;;2.13;;
45909;SDS011;31622;55.416;37.840;2022-08-19T05:56:34;5.30;;;2.35;;
45909;SDS011;31622;55.416;37.840;2022-08-19T05:59:04;4.93;;;2.30;;
45909;SDS011;31622;55.416;37.840;2022-08-19T06:01:34;4.32;;;2.20;;
45909;SDS011;31622;55.416;37.840;2022-08-19T06:04:01;5.03;;;2.05;;
45909;SDS011;31622;55.416;37.840;2022-08-19T06:06:27;5.22;;;2.50;;
45909;SDS011;31622;55.416;37.840;2022-08-19T06:08:53;4.97;;;2.55;;
45909;SDS011;31622;55.416;37.840;2022-08-19T06:14:00;4.13;;;2.42;;
45909;SDS011;31622;55.416;37.840;2022-08-19T06:16:33;3.70;;;2.70;;
45909;SDS011;31622;55.416;37.840;2022-08-19T06:19:00;3.53;;;2.30;;
45909;SDS011;31622;55.416;37.840;2022-08-19T06:21:28;4.65;;;2.53;;
45909;SDS011;31622;55.416;37.840;2022-08-19T06:23:54;8.10;;;2.88;;
45909;SDS011;31622;55.416;37.840;2022-08-19T06:26:21;4.30;;;2.35;;
45909;SDS011;31622;55.416;37.840;2022-08-19T06:28:47;5.03;;;3.40;;
45909;SDS011;31622;55.416;37.840;2022-08-19T06:31:14;4.10;;;2.50;;
45909;SDS011;31622;55.416;37.840;2022-08-19T06:33:43;8.70;;;2.40;;
45909;SDS011;31622;55.416;37.840;2022-08-19T06:38:54;6.10;;;2.40;;
45909;SDS011;31622;55.416;37.840;2022-08-19T06:41:22;8.38;;;2.80;;
45909;SDS011;31622;55.416;37.840;2022-08-19T06:43:48;6.75;;;2.60;;
45909;SDS011;31622;55.416;37.840;2022-08-19T06:46:14;4.20;;;2.40;;
45909;SDS011;31622;55.416;37.840;2022-08-19T06:48:40;6.57;;;2.30;;
45909;SDS011;31622;55.416;37.840;2022-08-19T06:51:06;5.35;;;2.55;;
45909;SDS011;31622;55.416;37.840;2022-08-19T06:53:33;3.63;;;2.15;;
45909;SDS011;31622;55.416;37.840;2022-08-19T06:55:59;4.88;;;2.25;;
45909;SDS011;31622;55.416;37.840;2022-08-19T06:58:30;4.35;;;2.47;;
45909;SDS011;31622;55.416;37.840;2022-08-19T07:01:01;3.85;;;2.58;;
45909;SDS011;31622;55.416;37.840;2022-08-19T07:03:31;7.78;;;2.95;;
45909;SDS011;31622;55.416;37.840;2022-08-19T07:06:02;4.85;;;2.60;;
45909;SDS011;31622;55.416;37.840;2022-08-19T07:08:29;5.43;;;3.10;;
45909;SDS011;31622;55.416;37.840;2022-08-19T07:10:55;2.92;;;2.20;;
45909;SDS011;31622;55.416;37.840;2022-08-19T07:13:20;6.72;;;2.90;;
45909;SDS011;31622;55.416;37.840;2022-08-19T07:15:47;5.70;;;2.85;;
45909;SDS011;31622;55.416;37.840;2022-08-19T07:18:16;4.47;;;2.72;;
45909;SDS011;31622;55.416;37.840;2022-08-19T07:20:45;5.97;;;2.97;;
45909;SDS011;31622;55.416;37.840;2022-08-19T07:23:11;3.75;;;2.60;;
45909;SDS011;31622;55.416;37.840;2022-08-19T07:25:37;6.90;;;3.15;;
45909;SDS011;31622;55.416;37.840;2022-08-19T07:28:03;4.72;;;2.72;;
45909;SDS011;31622;55.416;37.840;2022-08-19T07:30:29;3.50;;;2.80;;
45909;SDS011;31622;55.416;37.840;2022-08-19T07:32:55;4.95;;;2.60;;
45909;SDS011;31622;55.416;37.840;2022-08-19T07:35:23;3.47;;;2.45;;
45909;SDS011;31622;55.416;37.840;2022-08-19T07:37:50;4.47;;;2.88;;
45909;SDS011;31622;55.416;37.840;2022-08-19T07:40:15;6.07;;;2.75;;
45909;SDS011;31622;55.416;37.840;2022-08-19T07:42:41;6.35;;;2.88;;
45909;SDS011;31622;55.416;37.840;2022-08-19T07:45:08;4.35;;;3.08;;
45909;SDS011;31622;55.416;37.840;2022-08-19T07:47:35;5.47;;;2.80;;
45909;SDS011;31622;55.416;37.840;2022-08-19T07:50:01;5.10;;;2.97;;
45909;SDS011;31622;55.416;37.840;2022-08-19T07:52:29;5.25;;;2.90;;
45909;SDS011;31622;55.416;37.840;2022-08-19T07:54:55;4.88;;;2.55;;
45909;SDS011;31622;55.416;37.840;2022-08-19T07:57:21;4.47;;;2.78;;
45909;SDS011;31622;55.416;37.840;2022-08-19T07:59:46;6.25;;;3.10;;
45909;SDS011;31622;55.416;37.840;2022-08-19T08:02:12;3.72;;;2.67;;
45909;SDS011;31622;55.416;37.840;2022-08-19T08:04:37;4.65;;;2.70;;
45909;SDS011;31622;55.416;37.840;2022-08-19T08:07:21;4.38;;;2.67;;
45909;SDS011;31622;55.416;37.840;2022-08-19T08:10:06;6.13;;;2.97;;
45909;SDS011;31622;55.416;37.840;2022-08-19T08:12:34;6.43;;;3.00;;
45909;SDS011;31622;55.416;37.840;2022-08-19T08:15:10;3.85;;;2.60;;
45909;SDS011;31622;55.416;37.840;2022-08-19T08:17:41;7.85;;;2.67;;
45909;SDS011;31622;55.416;37.840;2022-08-19T08:20:08;4.80;;;2.38;;
45909;SDS011;31622;55.416;37.840;2022-08-19T08:22:35;6.75;;;3.05;;
45909;SDS011;31622;55.416;37.840;2022-08-19T08:25:22;8.25;;;2.67;;
45909;SDS011;31622;55.416;37.840;2022-08-19T08:27:48;8.95;;;2.90;;
45909;SDS011;31622;55.416;37.840;2022-08-19T08:30:19;5.85;;;2.92;;
45909;SDS011;31622;55.416;37.840;2022-08-19T08:32:47;7.97;;;2.80;;
45909;SDS011;31622;55.416;37.840;2022-08-19T08:35:15;7.88;;;3.00;;
45909;SDS011;31622;55.416;37.840;2022-08-19T08:37:42;5.57;;;2.70;;
45909;SDS011;31622;55.416;37.840;2022-08-19T08:40:31;5.93;;;3.03;;
45909;SDS011;31622;55.416;37.840;2022-08-19T08:51:20;12.15;;;3.35;;
45909;SDS011;31622;55.416;37.840;2022-08-19T08:53:55;13.40;;;3.05;;
45909;SDS011;31622;55.416;37.840;2022-08-19T08:56:21;9.15;;;3.42;;
45909;SDS011;31622;55.416;37.840;2022-08-19T09:01:15;5.88;;;3.03;;
45909;SDS011;31622;55.416;37.840;2022-08-19T09:03:41;20.67;;;4.57;;
45909;SDS011;31622;55.416;37.840;2022-08-19T09:09:12;3.55;;;2.67;;
45909;SDS011;31622;55.416;37.840;2022-08-19T09:14:20;5.63;;;3.10;;
45909;SDS011;31622;55.416;37.840;2022-08-19T09:17:07;4.80;;;2.63;;
45909;SDS011;31622;55.416;37.840;2022-08-19T09:19:47;5.95;;;2.40;;
45909;SDS011;31622;55.416;37.840;2022-08-19T09:22:15;4.47;;;2.30;;
45909;SDS011;31622;55.416;37.840;2022-08-19T09:24:41;4.70;;;2.53;;
45909;SDS011;31622;55.416;37.840;2022-08-19T09:27:06;3.58;;;2.47;;
45909;SDS011;31622;55.416;37.840;2022-08-19T09:29:32;9.35;;;2.47;;
45909;SDS011;31622;55.416;37.840;2022-08-19T09:31:57;4.45;;;2.22;;
45909;SDS011;31622;55.416;37.840;2022-08-19T09:34:23;5.65;;;2.45;;
45909;SDS011;31622;55.416;37.840;2022-08-19T09:36:49;6.70;;;2.70;;
45909;SDS011;31622;55.416;37.840;2022-08-19T09:39:20;4.32;;;2.65;;
45909;SDS011;31622;55.416;37.840;2022-08-19T09:41:46;4.82;;;2.50;;
45909;SDS011;31622;55.416;37.840;2022-08-19T09:44:12;7.00;;;3.05;;
45909;SDS011;31622;55.416;37.840;2022-08-19T09:46:38;7.07;;;2.63;;
45909;SDS011;31622;55.416;37.840;2022-08-19T09:49:03;4.38;;;2.20;;
45909;SDS011;31622;55.416;37.840;2022-08-19T09:51:31;3.80;;;2.25;;
45909;SDS011;31622;55.416;37.840;2022-08-19T09:54:03;8.65;;;2.08;;
45909;SDS011;31622;55.416;37.840;2022-08-19T09:56:29;4.75;;;2.15;;
45909;SDS011;31622;55.416;37.840;2022-08-19T09:58:57;4.75;;;2.83;;
45909;SDS011;31622;55.416;37.840;2022-08-19T10:01:25;4.03;;;2.40;;
45909;SDS011;31622;55.416;37.840;2022-08-19T10:03:53;5.10;;;2.67;;
45909;SDS011;31622;55.416;37.840;2022-08-19T10:06:23;5.43;;;2.55;;
45909;SDS011;31622;55.416;37.840;2022-08-19T10:08:59;6.20;;;2.53;;
45909;SDS011;31622;55.416;37.840;2022-08-19T10:11:25;10.85;;;3.33;;
45909;SDS011;31622;55.416;37.840;2022-08-19T10:13:51;7.50;;;3.20;;
45909;SDS011;31622;55.416;37.840;2022-08-19T10:16:19;6.05;;;2.83;;
45909;SDS011;31622;55.416;37.840;2022-08-19T10:18:47;7.90;;;2.95;;
45909;SDS011;31622;55.416;37.840;2022-08-19T10:21:14;5.95;;;2.38;;
45909;SDS011;31622;55.416;37.840;2022-08-19T10:23:43;6.15;;;2.50;;
45909;SDS011;31622;55.416;37.840;2022-08-19T10:26:11;5.50;;;2.72;;
45909;SDS011;31622;55.416;37.840;2022-08-19T10:28:41;6.33;;;1.90;;
45909;SDS011;31622;55.416;37.840;2022-08-19T10:31:07;5.53;;;2.20;;
45909;SDS011;31622;55.416;37.840;2022-08-19T10:33:42;6.15;;;2.10;;
45909;SDS011;31622;55.416;37.840;2022-08-19T10:36:13;3.25;;;2.00;;
45909;SDS011;31622;55.416;37.840;2022-08-19T10:38:40;5.13;;;2.30;;
45909;SDS011;31622;55.416;37.840;2022-08-19T10:41:10;5.25;;;2.30;;
45909;SDS011;31622;55.416;37.840;2022-08-19T10:43:37;4.77;;;2.50;;
45909;SDS011;31622;55.416;37.840;2022-08-19T10:46:05;4.55;;;2.03;;
45909;SDS011;31622;55.416;37.840;2022-08-19T10:48:33;3.83;;;2.28;;
45909;SDS011;31622;55.416;37.840;2022-08-19T10:50:59;6.10;;;2.25;;
45909;SDS011;31622;55.416;37.840;2022-08-19T10:53:43;3.53;;;1.95;;
45909;SDS011;31622;55.416;37.840;2022-08-19T10:56:09;5.07;;;2.00;;
45909;SDS011;31622;55.416;37.840;2022-08-19T10:58:53;3.88;;;1.98;;
45909;SDS011;31622;55.416;37.840;2022-08-19T11:01:18;2.50;;;1.70;;
45909;SDS011;31622;55.416;37.840;2022-08-19T11:03:45;2.47;;;1.85;;
45909;SDS011;31622;55.416;37.840;2022-08-19T11:06:11;2.90;;;1.90;;
45909;SDS011;31622;55.416;37.840;2022-08-19T11:08:37;4.47;;;2.13;;
45909;SDS011;31622;55.416;37.840;2022-08-19T11:11:03;3.38;;;1.83;;
45909;SDS011;31622;55.416;37.840;2022-08-19T11:13:31;5.00;;;1.95;;
45909;SDS011;31622;55.416;37.840;2022-08-19T11:16:00;10.35;;;2.40;;
45909;SDS011;31622;55.416;37.840;2022-08-19T11:18:27;6.20;;;1.90;;
45909;SDS011;31622;55.416;37.840;2022-08-19T11:20:53;5.90;;;2.20;;
45909;SDS011;31622;55.416;37.840;2022-08-19T11:23:19;4.80;;;1.83;;
45909;SDS011;31622;55.416;37.840;2022-08-19T11:25:45;5.60;;;1.80;;
45909;SDS011;31622;55.416;37.840;2022-08-19T11:28:11;4.13;;;2.10;;
45909;SDS011;31622;55.416;37.840;2022-08-19T11:30:37;3.88;;;1.90;;
45909;SDS011;31622;55.416;37.840;2022-08-19T11:33:03;4.10;;;2.17;;
45909;SDS011;31622;55.416;37.840;2022-08-19T11:35:29;7.07;;;2.35;;
45909;SDS011;31622;55.416;37.840;2022-08-19T11:37:55;3.45;;;2.10;;
45909;SDS011;31622;55.416;37.840;2022-08-19T11:40:23;7.55;;;3.08;;
45909;SDS011;31622;55.416;37.840;2022-08-19T11:42:48;4.13;;;2.10;;
45909;SDS011;31622;55.416;37.840;2022-08-19T11:45:20;7.38;;;2.60;;
45909;SDS011;31622;55.416;37.840;2022-08-19T11:47:47;6.93;;;2.78;;
45909;SDS011;31622;55.416;37.840;2022-08-19T11:50:13;5.47;;;2.55;;
45909;SDS011;31622;55.416;37.840;2022-08-19T11:52:40;4.38;;;2.15;;
45909;SDS011;31622;55.416;37.840;2022-08-19T11:55:06;9.88;;;2.85;;
45909;SDS011;31622;55.416;37.840;2022-08-19T11:57:32;4.32;;;3.00;;
45909;SDS011;31622;55.416;37.840;2022-08-19T11:59:57;6.53;;;2.80;;
45909;SDS011;31622;55.416;37.840;2022-08-19T12:02:23;5.03;;;2.75;;
45909;SDS011;31622;55.416;37.840;2022-08-19T12:04:49;7.50;;;2.80;;
45909;SDS011;31622;55.416;37.840;2022-08-19T12:07:14;4.32;;;2.80;;
45909;SDS011;31622;55.416;37.840;2022-08-19T12:09:40;5.70;;;2.67;;
45909;SDS011;31622;55.416;37.840;2022-08-19T12:12:06;3.78;;;2.50;;
45909;SDS011;31622;55.416;37.840;2022-08-19T12:14:32;4.53;;;3.08;;
45909;SDS011;31622;55.416;37.840;2022-08-19T12:16:57;8.02;;;2.85;;
45909;SDS011;31622;55.416;37.840;2022-08-19T12:19:23;5.25;;;2.75;;
45909;SDS011;31622;55.416;37.840;2022-08-19T12:21:50;4.35;;;2.67;;
45909;SDS011;31622;55.416;37.840;2022-08-19T12:24:16;3.90;;;2.35;;
45909;SDS011;31622;55.416;37.840;2022-08-19T12:26:48;4.50;;;2.60;;
45909;SDS011;31622;55.416;37.840;2022-08-19T12:29:14;4.45;;;2.30;;
45909;SDS011;31622;55.416;37.840;2022-08-19T12:31:40;3.53;;;2.30;;
45909;SDS011;31622;55.416;37.840;2022-08-19T12:34:05;5.75;;;2.70;;
45909;SDS011;31622;55.416;37.840;2022-08-19T12:36:31;5.28;;;2.78;;
45909;SDS011;31622;55.416;37.840;2022-08-19T12:39:00;4.60;;;2.38;;
45909;SDS011;31622;55.416;37.840;2022-08-19T12:41:25;4.28;;;2.30;;
45909;SDS011;31622;55.416;37.840;2022-08-19T12:43:51;5.40;;;2.60;;
45909;SDS011;31622;55.416;37.840;2022-08-19T12:46:17;8.30;;;3.10;;
45909;SDS011;31622;55.416;37.840;2022-08-19T12:48:47;7.50;;;3.08;;
45909;SDS011;31622;55.416;37.840;2022-08-19T12:51:15;7.32;;;3.30;;
45909;SDS011;31622;55.416;37.840;2022-08-19T12:53:43;6.25;;;3.38;;
45909;SDS011;31622;55.416;37.840;2022-08-19T12:56:09;5.53;;;3.35;;
45909;SDS011;31622;55.416;37.840;2022-08-19T12:58:36;9.90;;;4.80;;
45909;SDS011;31622;55.416;37.840;2022-08-19T13:01:09;9.38;;;6.00;;
45909;SDS011;31622;55.416;37.840;2022-08-19T13:03:36;12.77;;;6.25;;
45909;SDS011;31622;55.416;37.840;2022-08-19T13:06:02;10.85;;;6.93;;
45909;SDS011;31622;55.416;37.840;2022-08-19T13:08:27;9.23;;;6.43;;
45909;SDS011;31622;55.416;37.840;2022-08-19T13:10:53;9.55;;;6.57;;
45909;SDS011;31622;55.416;37.840;2022-08-19T13:13:18;8.25;;;5.57;;
45909;SDS011;31622;55.416;37.840;2022-08-19T13:15:44;10.00;;;5.63;;
45909;SDS011;31622;55.416;37.840;2022-08-19T13:18:11;8.40;;;5.35;;
45909;SDS011;31622;55.416;37.840;2022-08-19T13:20:38;8.48;;;5.05;;
45909;SDS011;31622;55.416;37.840;2022-08-19T13:23:05;7.60;;;4.78;;
45909;SDS011;31622;55.416;37.840;2022-08-19T13:25:32;6.40;;;4.63;;
45909;SDS011;31622;55.416;37.840;2022-08-19T13:27:58;7.47;;;4.63;;
45909;SDS011;31622;55.416;37.840;2022-08-19T13:30:24;6.93;;;4.68;;
45909;SDS011;31622;55.416;37.840;2022-08-19T13:33:09;8.13;;;4.35;;
45909;SDS011;31622;55.416;37.840;2022-08-19T13:35:57;11.73;;;5.38;;
45909;SDS011;31622;55.416;37.840;2022-08-19T13:38:25;8.73;;;4.47;;
45909;SDS011;31622;55.416;37.840;2022-08-19T13:40:52;8.90;;;4.38;;
45909;SDS011;31622;55.416;37.840;2022-08-19T13:43:19;12.55;;;5.28;;
45909;SDS011;31622;55.416;37.840;2022-08-19T13:45:47;9.52;;;5.20;;
45909;SDS011;31622;55.416;37.840;2022-08-19T13:48:14;8.23;;;4.85;;
45909;SDS011;31622;55.416;37.840;2022-08-19T13:50:41;9.75;;;6.78;;
45909;SDS011;31622;55.416;37.840;2022-08-19T13:53:09;11.23;;;6.80;;
45909;SDS011;31622;55.416;37.840;2022-08-19T13:55:39;10.93;;;7.70;;
45909;SDS011;31622;55.416;37.840;2022-08-19T13:58:05;14.65;;;9.18;;
45909;SDS011;31622;55.416;37.840;2022-08-19T14:00:34;14.57;;;10.15;;
45909;SDS011;31622;55.416;37.840;2022-08-19T14:03:01;13.13;;;10.40;;
45909;SDS011;31622;55.416;37.840;2022-08-19T14:05:28;16.50;;;11.23;;
45909;SDS011;31622;55.416;37.840;2022-08-19T14:07:55;19.48;;;10.85;;
45909;SDS011;31622;55.416;37.840;2022-08-19T14:10:21;16.73;;;11.88;;
45909;SDS011;31622;55.416;37.840;2022-08-19T14:12:48;15.45;;;10.30;;
45909;SDS011;31622;55.416;37.840;2022-08-19T14:15:17;17.42;;;10.35;;
45909;SDS011;31622;55.416;37.840;2022-08-19T14:17:43;12.57;;;10.13;;
45909;SDS011;31622;55.416;37.840;2022-08-19T14:20:11;11.20;;;9.35;;
45909;SDS011;31622;55.416;37.840;2022-08-19T14:22:40;13.50;;;9.30;;
45909;SDS011;31622;55.416;37.840;2022-08-19T14:25:07;13.48;;;9.80;;
45909;SDS011;31622;55.416;37.840;2022-08-19T14:27:35;12.00;;;9.40;;
45909;SDS011;31622;55.416;37.840;2022-08-19T14:30:02;13.60;;;9.43;;
45909;SDS011;31622;55.416;37.840;2022-08-19T14:32:29;14.27;;;9.30;;
45909;SDS011;31622;55.416;37.840;2022-08-19T14:34:55;12.48;;;8.52;;
45909;SDS011;31622;55.416;37.840;2022-08-19T14:37:20;12.75;;;8.82;;
45909;SDS011;31622;55.416;37.840;2022-08-19T14:39:49;10.07;;;7.60;;
45909;SDS011;31622;55.416;37.840;2022-08-19T14:42:14;12.27;;;7.75;;
45909;SDS011;31622;55.416;37.840;2022-08-19T14:44:41;13.48;;;8.10;;
45909;SDS011;31622;55.416;37.840;2022-08-19T14:47:07;11.30;;;8.13;;
45909;SDS011;31622;55.416;37.840;2022-08-19T14:49:33;12.38;;;6.70;;
45909;SDS011;31622;55.416;37.840;2022-08-19T14:51:59;15.00;;;6.88;;
45909;SDS011;31622;55.416;37.840;2022-08-19T14:54:25;8.20;;;6.05;;
45909;SDS011;31622;55.416;37.840;2022-08-19T14:56:50;10.60;;;6.55;;
45909;SDS011;31622;55.416;37.840;2022-08-19T14:59:16;8.35;;;6.00;;